Terminal Aerodrome Forecast
Issued by NWS

Home | Current Version | Previous Version | Graphics & Text | Print | Product List | Glossary On
Versions: 1 2 3 4 5 6 7 8 9 10 11 12 13 14 15 16 17 18
000
FTUS43 KICT 191720
TAFRSL
TAF
KRSL 191720Z 1918/2018 16010KT P6SM SKC
     FM192200 16013G21KT P6SM SCT250
     FM200300 14010KT P6SM VCTS SCT040 BKN120CB
     FM200900 VRB06KT P6SM SCT120 BKN250
     FM201200 16012KT P6SM SCT250
     FM201600 21016G25KT P6SM SCT250=

USA.gov is the U.S. government's official web portal to all federal, state and local government web resources and services.